sensor_id;sensor_type;location;lat;lon;timestamp;P1;durP1;ratioP1;P2;durP2;ratioP2
12884;SDS011;6510;51.362;7.370;2022-11-20T00:01:19;25.97;;;16.27;;
12884;SDS011;6510;51.362;7.370;2022-11-20T00:03:48;23.57;;;15.50;;
12884;SDS011;6510;51.362;7.370;2022-11-20T00:06:16;22.13;;;15.13;;
12884;SDS011;6510;51.362;7.370;2022-11-20T00:08:43;28.30;;;16.90;;
12884;SDS011;6510;51.362;7.370;2022-11-20T00:11:13;25.23;;;15.77;;
12884;SDS011;6510;51.362;7.370;2022-11-20T00:13:42;25.60;;;16.27;;
12884;SDS011;6510;51.362;7.370;2022-11-20T00:16:09;34.17;;;18.70;;
12884;SDS011;6510;51.362;7.370;2022-11-20T00:18:37;32.33;;;18.73;;
12884;SDS011;6510;51.362;7.370;2022-11-20T00:21:03;34.93;;;19.97;;
12884;SDS011;6510;51.362;7.370;2022-11-20T00:23:34;33.80;;;17.70;;
12884;SDS011;6510;51.362;7.370;2022-11-20T00:26:01;27.43;;;16.53;;
12884;SDS011;6510;51.362;7.370;2022-11-20T00:28:30;32.93;;;18.30;;
12884;SDS011;6510;51.362;7.370;2022-11-20T00:31:00;24.07;;;14.83;;
12884;SDS011;6510;51.362;7.370;2022-11-20T00:33:30;17.87;;;12.00;;
12884;SDS011;6510;51.362;7.370;2022-11-20T00:36:00;25.33;;;14.77;;
12884;SDS011;6510;51.362;7.370;2022-11-20T00:38:30;20.80;;;13.27;;
12884;SDS011;6510;51.362;7.370;2022-11-20T00:41:07;25.37;;;13.63;;
12884;SDS011;6510;51.362;7.370;2022-11-20T00:43:34;24.80;;;16.13;;
12884;SDS011;6510;51.362;7.370;2022-11-20T00:46:01;24.20;;;14.83;;
12884;SDS011;6510;51.362;7.370;2022-11-20T00:48:31;27.07;;;15.17;;
12884;SDS011;6510;51.362;7.370;2022-11-20T00:50:57;42.83;;;20.57;;
12884;SDS011;6510;51.362;7.370;2022-11-20T00:53:23;32.50;;;16.20;;
12884;SDS011;6510;51.362;7.370;2022-11-20T00:55:56;30.63;;;16.53;;
12884;SDS011;6510;51.362;7.370;2022-11-20T00:58:31;20.83;;;12.93;;
12884;SDS011;6510;51.362;7.370;2022-11-20T01:03:49;18.67;;;12.03;;
12884;SDS011;6510;51.362;7.370;2022-11-20T01:06:17;17.70;;;11.57;;
12884;SDS011;6510;51.362;7.370;2022-11-20T01:08:47;18.40;;;12.17;;
12884;SDS011;6510;51.362;7.370;2022-11-20T01:11:15;18.90;;;12.03;;
12884;SDS011;6510;51.362;7.370;2022-11-20T01:13:46;17.70;;;11.70;;
12884;SDS011;6510;51.362;7.370;2022-11-20T01:16:16;21.50;;;12.53;;
12884;SDS011;6510;51.362;7.370;2022-11-20T01:18:45;21.50;;;12.30;;
12884;SDS011;6510;51.362;7.370;2022-11-20T01:21:13;18.80;;;12.10;;
12884;SDS011;6510;51.362;7.370;2022-11-20T01:23:47;17.37;;;11.27;;
12884;SDS011;6510;51.362;7.370;2022-11-20T01:26:21;16.93;;;11.37;;
12884;SDS011;6510;51.362;7.370;2022-11-20T01:28:49;16.83;;;11.63;;
12884;SDS011;6510;51.362;7.370;2022-11-20T01:31:19;17.40;;;11.53;;
12884;SDS011;6510;51.362;7.370;2022-11-20T01:33:46;18.70;;;11.23;;
12884;SDS011;6510;51.362;7.370;2022-11-20T01:36:14;24.43;;;13.93;;
12884;SDS011;6510;51.362;7.370;2022-11-20T01:38:41;21.70;;;12.80;;
12884;SDS011;6510;51.362;7.370;2022-11-20T01:41:08;21.43;;;12.70;;
12884;SDS011;6510;51.362;7.370;2022-11-20T01:43:35;19.23;;;12.10;;
12884;SDS011;6510;51.362;7.370;2022-11-20T01:46:02;17.27;;;11.00;;
12884;SDS011;6510;51.362;7.370;2022-11-20T01:48:34;16.20;;;10.80;;
12884;SDS011;6510;51.362;7.370;2022-11-20T01:51:02;15.67;;;10.23;;
12884;SDS011;6510;51.362;7.370;2022-11-20T01:53:32;17.30;;;11.40;;
12884;SDS011;6510;51.362;7.370;2022-11-20T01:56:01;18.43;;;11.87;;
12884;SDS011;6510;51.362;7.370;2022-11-20T01:58:32;17.87;;;10.90;;
12884;SDS011;6510;51.362;7.370;2022-11-20T02:01:00;15.23;;;10.27;;
12884;SDS011;6510;51.362;7.370;2022-11-20T02:03:27;15.70;;;10.93;;
12884;SDS011;6510;51.362;7.370;2022-11-20T02:05:58;17.60;;;10.77;;
12884;SDS011;6510;51.362;7.370;2022-11-20T02:08:58;17.00;;;11.77;;
12884;SDS011;6510;51.362;7.370;2022-11-20T02:11:23;21.90;;;12.17;;
12884;SDS011;6510;51.362;7.370;2022-11-20T02:13:49;18.37;;;12.63;;
12884;SDS011;6510;51.362;7.370;2022-11-20T02:16:16;19.00;;;12.03;;
12884;SDS011;6510;51.362;7.370;2022-11-20T02:18:50;20.60;;;12.90;;
12884;SDS011;6510;51.362;7.370;2022-11-20T02:21:32;22.10;;;14.30;;
12884;SDS011;6510;51.362;7.370;2022-11-20T02:24:17;30.07;;;17.30;;
12884;SDS011;6510;51.362;7.370;2022-11-20T02:27:03;18.53;;;12.70;;
12884;SDS011;6510;51.362;7.370;2022-11-20T02:29:34;19.10;;;12.93;;
12884;SDS011;6510;51.362;7.370;2022-11-20T02:32:21;18.10;;;12.23;;
12884;SDS011;6510;51.362;7.370;2022-11-20T02:34:54;18.23;;;12.23;;
12884;SDS011;6510;51.362;7.370;2022-11-20T02:37:20;19.33;;;12.53;;
12884;SDS011;6510;51.362;7.370;2022-11-20T02:39:47;20.17;;;12.80;;
12884;SDS011;6510;51.362;7.370;2022-11-20T02:42:14;18.37;;;11.90;;
12884;SDS011;6510;51.362;7.370;2022-11-20T02:44:40;20.30;;;12.40;;
12884;SDS011;6510;51.362;7.370;2022-11-20T02:47:06;19.23;;;13.17;;
12884;SDS011;6510;51.362;7.370;2022-11-20T02:49:32;23.67;;;13.63;;
12884;SDS011;6510;51.362;7.370;2022-11-20T02:51:58;21.53;;;13.90;;
12884;SDS011;6510;51.362;7.370;2022-11-20T02:54:24;18.67;;;12.80;;
12884;SDS011;6510;51.362;7.370;2022-11-20T02:56:50;20.80;;;13.27;;
12884;SDS011;6510;51.362;7.370;2022-11-20T02:59:16;20.43;;;12.63;;
12884;SDS011;6510;51.362;7.370;2022-11-20T03:01:42;21.20;;;13.40;;
12884;SDS011;6510;51.362;7.370;2022-11-20T03:04:07;19.33;;;12.43;;
12884;SDS011;6510;51.362;7.370;2022-11-20T03:06:33;18.47;;;11.50;;
12884;SDS011;6510;51.362;7.370;2022-11-20T03:08:59;18.10;;;11.13;;
12884;SDS011;6510;51.362;7.370;2022-11-20T03:11:25;20.13;;;11.80;;
12884;SDS011;6510;51.362;7.370;2022-11-20T03:13:50;19.33;;;12.63;;
12884;SDS011;6510;51.362;7.370;2022-11-20T03:16:17;16.40;;;11.30;;
12884;SDS011;6510;51.362;7.370;2022-11-20T03:18:44;19.33;;;12.03;;
12884;SDS011;6510;51.362;7.370;2022-11-20T03:21:10;19.50;;;12.00;;
12884;SDS011;6510;51.362;7.370;2022-11-20T03:23:37;18.13;;;11.53;;
12884;SDS011;6510;51.362;7.370;2022-11-20T03:26:14;17.40;;;11.57;;
12884;SDS011;6510;51.362;7.370;2022-11-20T03:28:49;17.10;;;10.37;;
12884;SDS011;6510;51.362;7.370;2022-11-20T03:31:16;18.03;;;11.10;;
12884;SDS011;6510;51.362;7.370;2022-11-20T03:33:44;21.37;;;12.63;;
12884;SDS011;6510;51.362;7.370;2022-11-20T03:36:10;18.40;;;10.23;;
12884;SDS011;6510;51.362;7.370;2022-11-20T03:38:38;18.10;;;12.30;;
12884;SDS011;6510;51.362;7.370;2022-11-20T03:41:05;22.33;;;13.53;;
12884;SDS011;6510;51.362;7.370;2022-11-20T03:43:35;22.43;;;13.47;;
12884;SDS011;6510;51.362;7.370;2022-11-20T03:46:01;20.80;;;13.00;;
12884;SDS011;6510;51.362;7.370;2022-11-20T03:48:27;18.87;;;13.20;;
12884;SDS011;6510;51.362;7.370;2022-11-20T03:50:53;20.70;;;13.37;;
12884;SDS011;6510;51.362;7.370;2022-11-20T03:53:31;19.73;;;13.60;;
12884;SDS011;6510;51.362;7.370;2022-11-20T03:55:57;21.43;;;13.77;;
12884;SDS011;6510;51.362;7.370;2022-11-20T03:58:22;21.50;;;13.77;;
12884;SDS011;6510;51.362;7.370;2022-11-20T04:00:48;22.10;;;14.47;;
12884;SDS011;6510;51.362;7.370;2022-11-20T04:03:13;23.47;;;14.43;;
12884;SDS011;6510;51.362;7.370;2022-11-20T04:05:40;18.67;;;13.93;;
12884;SDS011;6510;51.362;7.370;2022-11-20T04:08:06;20.77;;;13.80;;
12884;SDS011;6510;51.362;7.370;2022-11-20T04:10:31;20.67;;;13.93;;
12884;SDS011;6510;51.362;7.370;2022-11-20T04:12:57;22.43;;;14.33;;
12884;SDS011;6510;51.362;7.370;2022-11-20T04:15:22;20.70;;;14.80;;
12884;SDS011;6510;51.362;7.370;2022-11-20T04:17:48;20.10;;;13.73;;
12884;SDS011;6510;51.362;7.370;2022-11-20T04:20:14;20.77;;;14.33;;
12884;SDS011;6510;51.362;7.370;2022-11-20T04:22:39;20.47;;;14.03;;
12884;SDS011;6510;51.362;7.370;2022-11-20T04:25:05;20.90;;;13.60;;
12884;SDS011;6510;51.362;7.370;2022-11-20T04:27:31;20.00;;;13.27;;
12884;SDS011;6510;51.362;7.370;2022-11-20T04:29:56;22.03;;;14.23;;
12884;SDS011;6510;51.362;7.370;2022-11-20T04:32:22;21.37;;;14.30;;
12884;SDS011;6510;51.362;7.370;2022-11-20T04:34:47;20.77;;;14.00;;
12884;SDS011;6510;51.362;7.370;2022-11-20T04:37:13;21.43;;;14.47;;
12884;SDS011;6510;51.362;7.370;2022-11-20T04:39:39;19.43;;;12.77;;
12884;SDS011;6510;51.362;7.370;2022-11-20T04:42:04;20.80;;;13.90;;
12884;SDS011;6510;51.362;7.370;2022-11-20T04:44:48;23.97;;;13.93;;
12884;SDS011;6510;51.362;7.370;2022-11-20T04:47:14;21.97;;;13.37;;
12884;SDS011;6510;51.362;7.370;2022-11-20T04:49:39;20.80;;;13.20;;
12884;SDS011;6510;51.362;7.370;2022-11-20T04:52:05;21.20;;;13.57;;
12884;SDS011;6510;51.362;7.370;2022-11-20T04:54:30;21.80;;;14.67;;
12884;SDS011;6510;51.362;7.370;2022-11-20T04:56:56;20.93;;;13.30;;
12884;SDS011;6510;51.362;7.370;2022-11-20T04:59:22;21.23;;;13.47;;
12884;SDS011;6510;51.362;7.370;2022-11-20T05:01:47;24.70;;;15.57;;
12884;SDS011;6510;51.362;7.370;2022-11-20T05:04:13;32.00;;;17.97;;
12884;SDS011;6510;51.362;7.370;2022-11-20T05:06:38;18.67;;;11.57;;
12884;SDS011;6510;51.362;7.370;2022-11-20T05:09:04;22.13;;;12.60;;
12884;SDS011;6510;51.362;7.370;2022-11-20T05:11:31;23.27;;;13.73;;
12884;SDS011;6510;51.362;7.370;2022-11-20T05:13:58;18.33;;;11.93;;
12884;SDS011;6510;51.362;7.370;2022-11-20T05:16:24;16.53;;;10.27;;
12884;SDS011;6510;51.362;7.370;2022-11-20T05:18:50;18.33;;;11.07;;
12884;SDS011;6510;51.362;7.370;2022-11-20T05:21:17;15.20;;;10.87;;
12884;SDS011;6510;51.362;7.370;2022-11-20T05:23:43;13.37;;;9.70;;
12884;SDS011;6510;51.362;7.370;2022-11-20T05:26:20;15.43;;;10.03;;
12884;SDS011;6510;51.362;7.370;2022-11-20T05:28:47;11.63;;;7.80;;
12884;SDS011;6510;51.362;7.370;2022-11-20T05:31:13;15.43;;;9.87;;
12884;SDS011;6510;51.362;7.370;2022-11-20T05:33:41;13.53;;;9.00;;
12884;SDS011;6510;51.362;7.370;2022-11-20T05:36:08;13.03;;;8.40;;
12884;SDS011;6510;51.362;7.370;2022-11-20T05:38:34;13.07;;;8.73;;
12884;SDS011;6510;51.362;7.370;2022-11-20T05:41:07;12.37;;;8.57;;
12884;SDS011;6510;51.362;7.370;2022-11-20T05:43:38;12.73;;;8.10;;
12884;SDS011;6510;51.362;7.370;2022-11-20T05:46:05;12.77;;;8.10;;
12884;SDS011;6510;51.362;7.370;2022-11-20T05:48:32;11.73;;;7.70;;
12884;SDS011;6510;51.362;7.370;2022-11-20T05:51:00;10.93;;;7.33;;
12884;SDS011;6510;51.362;7.370;2022-11-20T05:53:27;12.37;;;7.93;;
12884;SDS011;6510;51.362;7.370;2022-11-20T05:55:59;11.47;;;7.90;;
12884;SDS011;6510;51.362;7.370;2022-11-20T05:58:26;8.13;;;6.20;;
12884;SDS011;6510;51.362;7.370;2022-11-20T06:00:52;8.60;;;5.80;;
12884;SDS011;6510;51.362;7.370;2022-11-20T06:03:18;9.30;;;6.47;;
12884;SDS011;6510;51.362;7.370;2022-11-20T06:05:43;9.87;;;6.87;;
12884;SDS011;6510;51.362;7.370;2022-11-20T06:08:09;8.87;;;6.70;;
12884;SDS011;6510;51.362;7.370;2022-11-20T06:10:34;11.37;;;7.30;;
12884;SDS011;6510;51.362;7.370;2022-11-20T06:13:00;12.37;;;8.43;;
12884;SDS011;6510;51.362;7.370;2022-11-20T06:15:25;11.30;;;7.63;;
12884;SDS011;6510;51.362;7.370;2022-11-20T06:17:52;10.40;;;7.37;;
12884;SDS011;6510;51.362;7.370;2022-11-20T06:20:19;8.93;;;6.37;;
12884;SDS011;6510;51.362;7.370;2022-11-20T06:22:45;6.67;;;5.57;;
12884;SDS011;6510;51.362;7.370;2022-11-20T06:25:10;8.93;;;6.20;;
12884;SDS011;6510;51.362;7.370;2022-11-20T06:27:36;8.30;;;5.30;;
12884;SDS011;6510;51.362;7.370;2022-11-20T06:30:02;8.63;;;6.43;;
12884;SDS011;6510;51.362;7.370;2022-11-20T06:32:28;8.60;;;6.33;;
12884;SDS011;6510;51.362;7.370;2022-11-20T06:34:54;10.37;;;6.53;;
12884;SDS011;6510;51.362;7.370;2022-11-20T06:37:20;8.67;;;6.17;;
12884;SDS011;6510;51.362;7.370;2022-11-20T06:39:45;9.23;;;6.40;;
12884;SDS011;6510;51.362;7.370;2022-11-20T06:42:11;8.83;;;7.30;;
12884;SDS011;6510;51.362;7.370;2022-11-20T06:44:37;10.13;;;7.03;;
12884;SDS011;6510;51.362;7.370;2022-11-20T06:47:02;8.97;;;6.90;;
12884;SDS011;6510;51.362;7.370;2022-11-20T06:49:28;7.83;;;6.73;;
12884;SDS011;6510;51.362;7.370;2022-11-20T06:51:53;9.47;;;7.43;;
12884;SDS011;6510;51.362;7.370;2022-11-20T06:54:19;8.43;;;6.73;;
12884;SDS011;6510;51.362;7.370;2022-11-20T06:56:48;10.00;;;7.50;;
12884;SDS011;6510;51.362;7.370;2022-11-20T06:59:13;9.57;;;7.40;;
12884;SDS011;6510;51.362;7.370;2022-11-20T07:01:39;8.87;;;6.80;;
12884;SDS011;6510;51.362;7.370;2022-11-20T07:04:05;10.97;;;7.97;;
12884;SDS011;6510;51.362;7.370;2022-11-20T07:06:31;9.60;;;7.10;;
12884;SDS011;6510;51.362;7.370;2022-11-20T07:08:57;9.60;;;7.80;;
12884;SDS011;6510;51.362;7.370;2022-11-20T07:11:25;10.13;;;7.60;;
12884;SDS011;6510;51.362;7.370;2022-11-20T07:13:50;12.73;;;8.93;;
12884;SDS011;6510;51.362;7.370;2022-11-20T07:16:16;12.17;;;8.93;;
12884;SDS011;6510;51.362;7.370;2022-11-20T07:18:42;13.27;;;9.50;;
12884;SDS011;6510;51.362;7.370;2022-11-20T07:21:08;14.07;;;10.20;;
12884;SDS011;6510;51.362;7.370;2022-11-20T07:23:35;14.73;;;11.37;;
12884;SDS011;6510;51.362;7.370;2022-11-20T07:26:04;17.80;;;12.27;;
12884;SDS011;6510;51.362;7.370;2022-11-20T07:28:33;15.93;;;11.60;;
12884;SDS011;6510;51.362;7.370;2022-11-20T07:31:01;16.67;;;12.27;;
12884;SDS011;6510;51.362;7.370;2022-11-20T07:33:27;14.17;;;10.17;;
12884;SDS011;6510;51.362;7.370;2022-11-20T07:35:53;14.63;;;10.43;;
12884;SDS011;6510;51.362;7.370;2022-11-20T07:38:23;13.27;;;9.80;;
12884;SDS011;6510;51.362;7.370;2022-11-20T07:40:55;12.67;;;9.73;;
12884;SDS011;6510;51.362;7.370;2022-11-20T07:43:25;13.47;;;9.70;;
12884;SDS011;6510;51.362;7.370;2022-11-20T07:45:51;14.03;;;9.93;;
12884;SDS011;6510;51.362;7.370;2022-11-20T07:48:17;12.53;;;9.83;;
12884;SDS011;6510;51.362;7.370;2022-11-20T07:50:42;14.47;;;9.33;;
12884;SDS011;6510;51.362;7.370;2022-11-20T07:53:08;16.03;;;10.80;;
12884;SDS011;6510;51.362;7.370;2022-11-20T07:55:33;17.20;;;11.33;;
12884;SDS011;6510;51.362;7.370;2022-11-20T07:57:59;13.60;;;9.83;;
12884;SDS011;6510;51.362;7.370;2022-11-20T08:00:25;14.73;;;10.93;;
12884;SDS011;6510;51.362;7.370;2022-11-20T08:02:52;14.30;;;10.63;;
12884;SDS011;6510;51.362;7.370;2022-11-20T08:05:17;17.80;;;11.47;;
12884;SDS011;6510;51.362;7.370;2022-11-20T08:07:43;14.30;;;9.83;;
12884;SDS011;6510;51.362;7.370;2022-11-20T08:10:10;13.67;;;10.37;;
12884;SDS011;6510;51.362;7.370;2022-11-20T08:12:50;15.43;;;11.23;;
12884;SDS011;6510;51.362;7.370;2022-11-20T08:15:36;16.13;;;10.80;;
12884;SDS011;6510;51.362;7.370;2022-11-20T08:18:04;14.13;;;10.60;;
12884;SDS011;6510;51.362;7.370;2022-11-20T08:20:31;16.60;;;11.43;;
12884;SDS011;6510;51.362;7.370;2022-11-20T08:23:01;15.70;;;10.80;;
12884;SDS011;6510;51.362;7.370;2022-11-20T08:25:30;15.90;;;10.87;;
12884;SDS011;6510;51.362;7.370;2022-11-20T08:27:57;13.97;;;10.27;;
12884;SDS011;6510;51.362;7.370;2022-11-20T08:30:27;12.57;;;10.00;;
12884;SDS011;6510;51.362;7.370;2022-11-20T08:32:53;12.30;;;9.03;;
12884;SDS011;6510;51.362;7.370;2022-11-20T08:35:20;13.97;;;10.37;;
12884;SDS011;6510;51.362;7.370;2022-11-20T08:37:49;11.30;;;10.17;;
12884;SDS011;6510;51.362;7.370;2022-11-20T08:40:15;10.50;;;8.67;;
12884;SDS011;6510;51.362;7.370;2022-11-20T08:42:47;11.57;;;9.47;;
12884;SDS011;6510;51.362;7.370;2022-11-20T08:45:14;11.70;;;9.43;;
12884;SDS011;6510;51.362;7.370;2022-11-20T08:47:43;12.17;;;10.07;;
12884;SDS011;6510;51.362;7.370;2022-11-20T08:50:09;11.97;;;9.40;;
12884;SDS011;6510;51.362;7.370;2022-11-20T08:52:35;13.20;;;9.97;;
12884;SDS011;6510;51.362;7.370;2022-11-20T08:55:01;10.73;;;9.17;;
12884;SDS011;6510;51.362;7.370;2022-11-20T08:57:27;12.77;;;9.43;;
12884;SDS011;6510;51.362;7.370;2022-11-20T08:59:53;11.43;;;9.13;;
12884;SDS011;6510;51.362;7.370;2022-11-20T09:02:18;10.10;;;8.60;;
12884;SDS011;6510;51.362;7.370;2022-11-20T09:04:44;10.57;;;9.10;;
12884;SDS011;6510;51.362;7.370;2022-11-20T09:07:10;10.27;;;8.20;;
12884;SDS011;6510;51.362;7.370;2022-11-20T09:09:35;11.40;;;9.57;;
12884;SDS011;6510;51.362;7.370;2022-11-20T09:12:01;10.77;;;9.30;;
12884;SDS011;6510;51.362;7.370;2022-11-20T09:14:26;13.43;;;9.80;;
12884;SDS011;6510;51.362;7.370;2022-11-20T09:16:57;10.63;;;9.23;;
12884;SDS011;6510;51.362;7.370;2022-11-20T09:19:25;14.20;;;10.00;;
12884;SDS011;6510;51.362;7.370;2022-11-20T09:21:51;11.93;;;9.67;;
12884;SDS011;6510;51.362;7.370;2022-11-20T09:24:17;12.63;;;10.57;;
12884;SDS011;6510;51.362;7.370;2022-11-20T09:26:43;13.73;;;11.13;;
12884;SDS011;6510;51.362;7.370;2022-11-20T09:29:09;15.23;;;12.20;;
12884;SDS011;6510;51.362;7.370;2022-11-20T09:31:35;12.80;;;10.30;;
12884;SDS011;6510;51.362;7.370;2022-11-20T09:34:01;13.03;;;9.77;;
12884;SDS011;6510;51.362;7.370;2022-11-20T09:36:27;13.63;;;10.30;;
12884;SDS011;6510;51.362;7.370;2022-11-20T09:38:53;18.47;;;13.73;;
12884;SDS011;6510;51.362;7.370;2022-11-20T09:46:46;14.47;;;11.20;;
12884;SDS011;6510;51.362;7.370;2022-11-20T09:52:30;18.87;;;12.53;;
12884;SDS011;6510;51.362;7.370;2022-11-20T09:55:00;19.20;;;14.30;;
12884;SDS011;6510;51.362;7.370;2022-11-20T09:57:36;14.13;;;10.80;;
12884;SDS011;6510;51.362;7.370;2022-11-20T10:00:05;14.93;;;11.10;;
12884;SDS011;6510;51.362;7.370;2022-11-20T10:10:54;14.87;;;11.00;;
12884;SDS011;6510;51.362;7.370;2022-11-20T10:13:35;14.30;;;10.30;;
12884;SDS011;6510;51.362;7.370;2022-11-20T10:30:20;10.00;;;7.67;;
12884;SDS011;6510;51.362;7.370;2022-11-20T10:32:50;8.53;;;6.57;;
12884;SDS011;6510;51.362;7.370;2022-11-20T10:35:32;8.53;;;6.47;;
12884;SDS011;6510;51.362;7.370;2022-11-20T10:38:02;10.23;;;8.13;;
12884;SDS011;6510;51.362;7.370;2022-11-20T10:40:38;9.97;;;8.33;;
12884;SDS011;6510;51.362;7.370;2022-11-20T10:48:32;6.73;;;5.60;;
12884;SDS011;6510;51.362;7.370;2022-11-20T10:56:07;9.70;;;7.50;;
12884;SDS011;6510;51.362;7.370;2022-11-20T11:01:49;6.73;;;5.40;;
12884;SDS011;6510;51.362;7.370;2022-11-20T11:04:19;6.33;;;5.53;;
12884;SDS011;6510;51.362;7.370;2022-11-20T11:07:06;7.40;;;5.70;;
12884;SDS011;6510;51.362;7.370;2022-11-20T11:09:46;17.83;;;13.13;;
12884;SDS011;6510;51.362;7.370;2022-11-20T11:12:42;14.87;;;11.10;;
12884;SDS011;6510;51.362;7.370;2022-11-20T11:15:12;8.80;;;6.57;;
12884;SDS011;6510;51.362;7.370;2022-11-20T11:17:50;10.77;;;7.23;;
12884;SDS011;6510;51.362;7.370;2022-11-20T11:22:47;7.90;;;6.20;;
12884;SDS011;6510;51.362;7.370;2022-11-20T11:27:51;9.07;;;6.43;;
12884;SDS011;6510;51.362;7.370;2022-11-20T11:30:20;8.63;;;6.33;;
12884;SDS011;6510;51.362;7.370;2022-11-20T11:32:49;8.40;;;6.37;;
12884;SDS011;6510;51.362;7.370;2022-11-20T11:35:21;8.80;;;7.20;;
12884;SDS011;6510;51.362;7.370;2022-11-20T11:37:52;8.47;;;6.50;;
12884;SDS011;6510;51.362;7.370;2022-11-20T11:40:39;9.17;;;6.43;;
12884;SDS011;6510;51.362;7.370;2022-11-20T11:43:06;9.53;;;6.43;;
12884;SDS011;6510;51.362;7.370;2022-11-20T11:46:01;9.43;;;6.57;;
12884;SDS011;6510;51.362;7.370;2022-11-20T11:48:29;9.03;;;6.60;;
12884;SDS011;6510;51.362;7.370;2022-11-20T11:50:55;9.47;;;7.23;;
12884;SDS011;6510;51.362;7.370;2022-11-20T11:53:21;10.27;;;7.80;;
12884;SDS011;6510;51.362;7.370;2022-11-20T12:04:21;11.17;;;7.70;;
12884;SDS011;6510;51.362;7.370;2022-11-20T12:07:01;12.03;;;7.90;;
12884;SDS011;6510;51.362;7.370;2022-11-20T12:09:37;8.83;;;7.07;;
12884;SDS011;6510;51.362;7.370;2022-11-20T12:12:21;9.30;;;6.80;;
12884;SDS011;6510;51.362;7.370;2022-11-20T12:14:50;9.73;;;7.80;;
12884;SDS011;6510;51.362;7.370;2022-11-20T12:17:20;10.10;;;7.63;;
12884;SDS011;6510;51.362;7.370;2022-11-20T12:19:45;11.47;;;8.40;;
12884;SDS011;6510;51.362;7.370;2022-11-20T12:25:07;10.97;;;8.30;;
12884;SDS011;6510;51.362;7.370;2022-11-20T12:30:36;11.13;;;8.70;;
12884;SDS011;6510;51.362;7.370;2022-11-20T12:39:22;12.17;;;9.10;;
12884;SDS011;6510;51.362;7.370;2022-11-20T12:59:51;13.60;;;9.50;;
12884;SDS011;6510;51.362;7.370;2022-11-20T13:02:41;14.10;;;9.77;;
12884;SDS011;6510;51.362;7.370;2022-11-20T13:05:43;14.53;;;10.30;;
12884;SDS011;6510;51.362;7.370;2022-11-20T13:08:32;19.03;;;13.73;;
12884;SDS011;6510;51.362;7.370;2022-11-20T13:11:15;13.23;;;10.03;;
12884;SDS011;6510;51.362;7.370;2022-11-20T13:14:26;14.50;;;10.00;;
12884;SDS011;6510;51.362;7.370;2022-11-20T13:19:52;14.33;;;10.03;;
12884;SDS011;6510;51.362;7.370;2022-11-20T13:22:26;17.67;;;11.50;;
12884;SDS011;6510;51.362;7.370;2022-11-20T13:24:52;19.03;;;11.87;;
12884;SDS011;6510;51.362;7.370;2022-11-20T13:27:19;15.10;;;10.73;;
12884;SDS011;6510;51.362;7.370;2022-11-20T13:29:57;14.50;;;10.87;;
12884;SDS011;6510;51.362;7.370;2022-11-20T13:32:52;18.83;;;11.73;;
12884;SDS011;6510;51.362;7.370;2022-11-20T13:35:25;17.97;;;12.80;;
12884;SDS011;6510;51.362;7.370;2022-11-20T13:37:59;18.13;;;11.17;;
12884;SDS011;6510;51.362;7.370;2022-11-20T13:40:25;17.63;;;11.80;;
12884;SDS011;6510;51.362;7.370;2022-11-20T13:45:29;19.10;;;11.73;;
12884;SDS011;6510;51.362;7.370;2022-11-20T13:47:57;19.27;;;12.27;;
12884;SDS011;6510;51.362;7.370;2022-11-20T13:53:19;17.03;;;11.77;;
12884;SDS011;6510;51.362;7.370;2022-11-20T13:58:58;18.43;;;12.17;;
12884;SDS011;6510;51.362;7.370;2022-11-20T14:01:34;18.77;;;12.97;;
12884;SDS011;6510;51.362;7.370;2022-11-20T14:04:01;19.40;;;12.47;;
12884;SDS011;6510;51.362;7.370;2022-11-20T14:06:41;20.20;;;13.67;;
12884;SDS011;6510;51.362;7.370;2022-11-20T14:09:12;21.53;;;13.93;;
12884;SDS011;6510;51.362;7.370;2022-11-20T14:11:49;19.73;;;13.17;;
12884;SDS011;6510;51.362;7.370;2022-11-20T14:14:16;20.23;;;13.23;;
12884;SDS011;6510;51.362;7.370;2022-11-20T14:16:44;22.57;;;14.73;;
12884;SDS011;6510;51.362;7.370;2022-11-20T14:21:45;21.53;;;13.97;;
12884;SDS011;6510;51.362;7.370;2022-11-20T14:24:12;20.90;;;14.27;;
12884;SDS011;6510;51.362;7.370;2022-11-20T14:26:42;23.97;;;14.83;;
12884;SDS011;6510;51.362;7.370;2022-11-20T14:29:19;26.83;;;14.33;;
12884;SDS011;6510;51.362;7.370;2022-11-20T14:31:51;24.63;;;14.47;;
12884;SDS011;6510;51.362;7.370;2022-11-20T14:34:23;24.00;;;14.57;;
12884;SDS011;6510;51.362;7.370;2022-11-20T14:36:52;24.13;;;15.47;;
12884;SDS011;6510;51.362;7.370;2022-11-20T14:39:22;28.17;;;17.33;;
12884;SDS011;6510;51.362;7.370;2022-11-20T14:41:54;23.63;;;15.63;;
12884;SDS011;6510;51.362;7.370;2022-11-20T14:44:21;24.57;;;15.80;;
12884;SDS011;6510;51.362;7.370;2022-11-20T14:46:51;27.63;;;15.70;;
12884;SDS011;6510;51.362;7.370;2022-11-20T14:49:17;24.10;;;14.73;;
12884;SDS011;6510;51.362;7.370;2022-11-20T14:51:43;28.17;;;17.03;;
12884;SDS011;6510;51.362;7.370;2022-11-20T14:54:12;30.17;;;20.43;;
12884;SDS011;6510;51.362;7.370;2022-11-20T14:56:40;25.43;;;16.80;;
12884;SDS011;6510;51.362;7.370;2022-11-20T14:59:06;30.03;;;16.90;;
12884;SDS011;6510;51.362;7.370;2022-11-20T15:01:33;27.23;;;16.30;;
12884;SDS011;6510;51.362;7.370;2022-11-20T15:04:07;26.93;;;15.80;;
12884;SDS011;6510;51.362;7.370;2022-11-20T15:06:37;27.97;;;16.47;;
12884;SDS011;6510;51.362;7.370;2022-11-20T15:09:04;29.67;;;18.07;;
12884;SDS011;6510;51.362;7.370;2022-11-20T15:11:34;28.50;;;16.13;;
12884;SDS011;6510;51.362;7.370;2022-11-20T15:14:02;28.97;;;15.90;;
12884;SDS011;6510;51.362;7.370;2022-11-20T15:16:29;31.03;;;16.90;;
12884;SDS011;6510;51.362;7.370;2022-11-20T15:18:55;32.00;;;16.90;;
12884;SDS011;6510;51.362;7.370;2022-11-20T15:21:22;29.27;;;16.90;;
12884;SDS011;6510;51.362;7.370;2022-11-20T15:23:48;31.43;;;16.67;;
12884;SDS011;6510;51.362;7.370;2022-11-20T15:26:15;26.60;;;16.10;;
12884;SDS011;6510;51.362;7.370;2022-11-20T15:28:46;28.33;;;16.27;;
12884;SDS011;6510;51.362;7.370;2022-11-20T15:31:15;38.33;;;19.00;;
12884;SDS011;6510;51.362;7.370;2022-11-20T15:33:42;35.70;;;18.70;;
12884;SDS011;6510;51.362;7.370;2022-11-20T15:36:08;36.57;;;18.50;;
12884;SDS011;6510;51.362;7.370;2022-11-20T15:38:34;33.47;;;18.90;;
12884;SDS011;6510;51.362;7.370;2022-11-20T15:41:00;36.63;;;19.80;;
12884;SDS011;6510;51.362;7.370;2022-11-20T15:43:25;39.17;;;18.57;;
12884;SDS011;6510;51.362;7.370;2022-11-20T15:45:53;36.03;;;19.30;;
12884;SDS011;6510;51.362;7.370;2022-11-20T15:48:25;37.63;;;19.57;;
12884;SDS011;6510;51.362;7.370;2022-11-20T15:51:11;37.03;;;19.37;;
12884;SDS011;6510;51.362;7.370;2022-11-20T15:53:53;37.90;;;20.47;;
12884;SDS011;6510;51.362;7.370;2022-11-20T15:56:19;33.43;;;19.23;;
12884;SDS011;6510;51.362;7.370;2022-11-20T15:58:45;36.83;;;18.97;;
12884;SDS011;6510;51.362;7.370;2022-11-20T16:01:11;38.40;;;21.23;;
12884;SDS011;6510;51.362;7.370;2022-11-20T16:03:39;41.23;;;23.50;;
12884;SDS011;6510;51.362;7.370;2022-11-20T16:06:06;38.80;;;19.80;;
12884;SDS011;6510;51.362;7.370;2022-11-20T16:08:32;34.63;;;19.33;;
12884;SDS011;6510;51.362;7.370;2022-11-20T16:10:57;33.63;;;18.40;;
12884;SDS011;6510;51.362;7.370;2022-11-20T16:13:23;33.43;;;17.93;;
12884;SDS011;6510;51.362;7.370;2022-11-20T16:16:07;28.07;;;14.83;;
12884;SDS011;6510;51.362;7.370;2022-11-20T16:18:44;28.53;;;16.23;;
12884;SDS011;6510;51.362;7.370;2022-11-20T16:21:13;27.40;;;15.23;;
12884;SDS011;6510;51.362;7.370;2022-11-20T16:23:42;30.77;;;16.70;;
12884;SDS011;6510;51.362;7.370;2022-11-20T16:26:15;28.63;;;15.53;;
12884;SDS011;6510;51.362;7.370;2022-11-20T16:28:45;28.53;;;16.50;;
12884;SDS011;6510;51.362;7.370;2022-11-20T16:31:16;31.70;;;17.00;;
12884;SDS011;6510;51.362;7.370;2022-11-20T16:33:42;31.60;;;17.37;;
12884;SDS011;6510;51.362;7.370;2022-11-20T16:36:14;29.57;;;17.73;;
12884;SDS011;6510;51.362;7.370;2022-11-20T16:38:40;34.43;;;18.97;;